Time;durP1;ratioP1;P1;durP2;ratioP2;P2;SDS_P1;SDS_P2;PMS_P1;PMS_P2;Temp;Humidity;BMP_temperature;BMP_pressure;BME280_temperature;BME280_humidity;BME280_pressure;Samples;Min_cycle;Max_cycle;Signal;HPM_P1;HPM_P2
2024/04/15 00:02:13;;;;;;;4.73;4.17;;;12.80;99.90;;;;;;5420326;26;20260;-66
2024/04/15 00:04:39;;;;;;;4.73;4.33;;;13.00;99.90;;;;;;5419390;26;20703;-66
2024/04/15 00:07:10;;;;;;;5.67;4.23;;;13.10;99.90;;;;;;5419636;26;20326;-66
2024/04/15 00:09:36;;;;;;;5.33;4.53;;;13.10;99.90;;;;;;5419374;26;20291;-66
2024/04/15 00:12:05;;;;;;;4.60;4.10;;;13.10;99.90;;;;;;5419327;26;20241;-66
2024/04/15 00:14:31;;;;;;;4.23;3.63;;;13.10;99.90;;;;;;5419325;26;20260;-66
2024/04/15 00:16:59;;;;;;;4.73;4.07;;;13.20;99.90;;;;;;5419152;26;20221;-66
2024/04/15 00:19:27;;;;;;;4.47;4.07;;;13.20;99.90;;;;;;5419002;26;20351;-66
2024/04/15 00:21:55;;;;;;;4.70;4.30;;;13.20;99.90;;;;;;5419302;26;20260;-65
2024/04/15 00:24:24;;;;;;;4.50;4.10;;;13.20;99.90;;;;;;5418720;26;20260;-65
2024/04/15 00:26:52;;;;;;;4.60;4.20;;;13.20;99.90;;;;;;5420127;26;20280;-65
2024/04/15 00:29:18;;;;;;;4.47;4.07;;;13.20;99.90;;;;;;5419012;26;20260;-65
2024/04/15 00:31:47;;;;;;;4.60;4.07;;;13.20;99.90;;;;;;5419425;26;20546;-66
2024/04/15 00:34:13;;;;;;;4.77;4.33;;;13.20;99.90;;;;;;5422876;26;20221;-65
2024/04/15 00:36:42;;;;;;;5.20;4.73;;;13.20;99.90;;;;;;5419739;26;20311;-66
2024/04/15 00:39:08;;;;;;;5.17;4.67;;;13.20;99.90;;;;;;5418739;26;20256;-66
2024/04/15 00:41:40;;;;;;;5.17;4.33;;;13.20;99.90;;;;;;5419999;26;20221;-64
2024/04/15 00:44:05;;;;;;;9.93;4.67;;;13.30;99.90;;;;;;5419306;26;20182;-65
2024/04/15 00:46:34;;;;;;;5.30;4.17;;;13.20;99.90;;;;;;5418414;26;20256;-65
2024/04/15 00:49:01;;;;;;;9.47;4.90;;;13.20;99.90;;;;;;5418498;26;20772;-66
2024/04/15 00:51:30;;;;;;;7.60;4.83;;;13.20;99.90;;;;;;5418823;26;20318;-65
2024/04/15 00:53:58;;;;;;;4.57;4.10;;;13.20;99.90;;;;;;5418537;26;20274;-65
2024/04/15 00:56:27;;;;;;;4.50;4.10;;;13.20;99.90;;;;;;5418494;26;20259;-65
2024/04/15 00:58:56;;;;;;;5.10;4.60;;;13.10;99.90;;;;;;5418134;26;20233;-65
2024/04/15 01:01:25;;;;;;;5.00;4.60;;;12.90;99.90;;;;;;5418364;26;20225;-65
2024/04/15 01:03:51;;;;;;;4.17;3.80;;;12.90;99.90;;;;;;5418742;26;20272;-65
2024/04/15 01:06:20;;;;;;;5.83;4.43;;;12.80;99.90;;;;;;5421019;26;20217;-66
2024/04/15 01:08:45;;;;;;;5.60;5.10;;;12.90;99.90;;;;;;5418429;26;20579;-66
2024/04/15 01:11:15;;;;;;;5.00;4.50;;;13.00;99.90;;;;;;5418468;26;20259;-66
2024/04/15 01:13:42;;;;;;;7.30;4.90;;;13.00;99.90;;;;;;5418750;26;20278;-66
2024/04/15 01:16:13;;;;;;;5.30;4.83;;;13.10;99.90;;;;;;5418189;26;20776;-66
2024/04/15 01:18:39;;;;;;;6.00;5.40;;;13.10;99.90;;;;;;5419103;26;20229;-66
2024/04/15 01:21:08;;;;;;;5.97;4.80;;;13.10;99.90;;;;;;5418353;26;20572;-66
2024/04/15 01:23:38;;;;;;;6.53;4.90;;;13.10;99.90;;;;;;5418224;26;20264;-66
2024/04/15 01:26:09;;;;;;;9.33;5.00;;;13.20;99.90;;;;;;5418549;26;20214;-66
2024/04/15 01:28:35;;;;;;;5.37;4.83;;;13.20;99.90;;;;;;5418038;26;20237;-66
2024/04/15 01:31:03;;;;;;;6.10;5.07;;;13.20;99.90;;;;;;5418965;26;20214;-65
2024/04/15 01:33:29;;;;;;;5.80;5.30;;;13.20;99.90;;;;;;5418455;26;20221;-65
2024/04/15 01:35:58;;;;;;;6.67;5.40;;;13.20;99.90;;;;;;5417620;26;20268;-65
2024/04/15 01:38:24;;;;;;;6.80;5.07;;;13.20;99.90;;;;;;5417201;26;20230;-65
2024/04/15 01:40:52;;;;;;;5.77;4.80;;;13.20;99.90;;;;;;5418268;26;20264;-65
2024/04/15 01:43:21;;;;;;;6.73;4.80;;;13.20;99.90;;;;;;5420866;26;20221;-65
2024/04/15 01:45:50;;;;;;;5.20;4.70;;;13.20;99.90;;;;;;5418315;26;20704;-64
2024/04/15 01:48:16;;;;;;;5.33;4.83;;;13.10;99.90;;;;;;5417994;26;20265;-65
2024/04/15 01:50:44;;;;;;;5.37;4.73;;;13.10;99.90;;;;;;5418563;26;20249;-65
2024/04/15 01:53:11;;;;;;;9.80;4.67;;;13.10;99.90;;;;;;5418836;26;20269;-64
2024/04/15 01:55:39;;;;;;;5.53;4.27;;;13.10;99.90;;;;;;5419759;26;20222;-66
2024/04/15 01:58:05;;;;;;;5.07;4.60;;;13.10;99.90;;;;;;5417702;26;20226;-64
2024/04/15 02:00:37;;;;;;;5.97;4.70;;;13.10;99.90;;;;;;5417650;26;20287;-64
2024/04/15 02:03:03;;;;;;;4.70;4.30;;;13.10;99.90;;;;;;5417875;26;20279;-64
2024/04/15 02:05:31;;;;;;;6.27;5.07;;;13.00;99.90;;;;;;5417731;26;20221;-64
2024/04/15 02:07:58;;;;;;;9.73;5.10;;;13.00;99.90;;;;;;5417605;26;20557;-64
2024/04/15 02:10:26;;;;;;;5.50;5.00;;;12.90;99.90;;;;;;5418391;26;20256;-66
2024/04/15 02:12:52;;;;;;;5.33;4.40;;;12.90;99.90;;;;;;5418250;26;20225;-64
2024/04/15 02:15:21;;;;;;;4.50;4.10;;;12.90;99.90;;;;;;5418074;26;20574;-65
2024/04/15 02:17:49;;;;;;;7.43;4.20;;;13.00;99.90;;;;;;5417978;26;20260;-65
2024/04/15 02:20:18;;;;;;;5.97;4.10;;;13.10;99.90;;;;;;5417450;26;20276;-65
2024/04/15 02:22:44;;;;;;;4.23;3.83;;;13.20;99.90;;;;;;5417362;26;20645;-65
2024/04/15 02:25:13;;;;;;;4.43;4.03;;;13.20;99.90;;;;;;5417703;26;20221;-66
2024/04/15 02:27:39;;;;;;;4.40;4.00;;;13.20;99.90;;;;;;5417427;26;20221;-65
2024/04/15 02:30:09;;;;;;;4.40;4.00;;;13.20;99.90;;;;;;5417449;26;20233;-65
2024/04/15 02:32:35;;;;;;;4.37;4.03;;;13.20;99.90;;;;;;5417392;26;20213;-65
2024/04/15 02:35:07;;;;;;;5.33;3.90;;;13.20;99.90;;;;;;5417202;26;20338;-65
2024/04/15 02:37:33;;;;;;;4.50;4.10;;;13.20;99.90;;;;;;5418095;26;20244;-65
2024/04/15 02:40:01;;;;;;;4.63;3.47;;;13.20;99.90;;;;;;5417266;26;20238;-65
2024/04/15 02:42:27;;;;;;;3.53;3.23;;;13.20;99.90;;;;;;5417124;26;20318;-65
2024/04/15 02:44:56;;;;;;;3.40;3.10;;;13.20;99.90;;;;;;5417368;26;20641;-65
2024/04/15 02:47:22;;;;;;;4.30;3.70;;;13.30;99.90;;;;;;5417067;26;20729;-65
2024/04/15 02:49:51;;;;;;;4.53;3.47;;;13.30;99.90;;;;;;5420425;26;20750;-65
2024/04/15 02:52:19;;;;;;;3.77;3.33;;;13.20;99.90;;;;;;5420731;26;20259;-65
2024/04/15 02:54:48;;;;;;;4.60;3.37;;;13.20;99.90;;;;;;5420958;26;20217;-65
2024/04/15 02:57:14;;;;;;;4.00;3.63;;;13.20;99.90;;;;;;5420340;26;20221;-65
2024/04/15 02:59:42;;;;;;;4.67;3.70;;;13.20;99.90;;;;;;5420460;26;20714;-65
2024/04/15 03:02:08;;;;;;;3.43;3.13;;;13.10;99.90;;;;;;5420312;26;20626;-65
2024/04/15 03:04:37;;;;;;;3.63;3.33;;;13.10;99.90;;;;;;5421106;26;20225;-65
2024/04/15 03:07:03;;;;;;;3.80;3.50;;;13.10;99.90;;;;;;5420267;26;20217;-65
2024/04/15 03:09:34;;;;;;;5.13;3.73;;;13.10;99.90;;;;;;5420174;26;20591;-65
2024/04/15 03:11:59;;;;;;;6.10;4.07;;;13.00;99.90;;;;;;5420112;26;20233;-65
2024/04/15 03:14:28;;;;;;;4.33;3.77;;;13.00;99.90;;;;;;5420245;26;20263;-65
2024/04/15 03:16:54;;;;;;;4.50;3.60;;;13.00;99.90;;;;;;5421259;26;20233;-66
2024/04/15 03:19:22;;;;;;;5.90;4.13;;;13.00;99.90;;;;;;5421162;26;20706;-64
2024/04/15 03:21:48;;;;;;;4.30;3.97;;;12.90;99.90;;;;;;5421109;26;20221;-65
2024/04/15 03:24:17;;;;;;;5.33;4.00;;;12.90;99.90;;;;;;5422884;26;20279;-66
2024/04/15 03:26:45;;;;;;;4.87;4.33;;;12.80;99.90;;;;;;5420752;26;20343;-65
2024/04/15 03:29:14;;;;;;;7.70;4.10;;;12.80;99.90;;;;;;5420951;26;20257;-64
2024/04/15 03:31:40;;;;;;;5.17;4.20;;;12.70;99.90;;;;;;5420481;26;20218;-64
2024/04/15 03:34:08;;;;;;;4.80;4.40;;;12.80;99.90;;;;;;5420258;26;20251;-64
2024/04/15 03:36:34;;;;;;;8.23;4.80;;;12.80;99.90;;;;;;5422059;26;20268;-67
2024/04/15 03:39:03;;;;;;;9.20;5.57;;;12.70;99.90;;;;;;5419716;26;20237;-67
2024/04/15 03:41:31;;;;;;;6.60;5.70;;;12.70;99.90;;;;;;5420068;26;20551;-67
2024/04/15 03:44:02;;;;;;;7.27;5.90;;;12.60;99.90;;;;;;5419913;26;20317;-67
2024/04/15 03:46:28;;;;;;;6.63;5.97;;;12.60;99.90;;;;;;5419780;26;20252;-67
2024/04/15 03:48:57;;;;;;;7.87;6.23;;;12.70;99.90;;;;;;5419660;26;20237;-67
2024/04/15 03:51:23;;;;;;;6.80;6.20;;;12.60;99.90;;;;;;5422006;26;20406;-67
2024/04/15 03:53:51;;;;;;;7.83;6.50;;;12.60;99.90;;;;;;5420978;26;20237;-68
2024/04/15 03:56:17;;;;;;;7.33;6.33;;;12.60;99.90;;;;;;5432730;26;20229;-69
2024/04/15 03:58:46;;;;;;;6.80;6.10;;;12.60;99.90;;;;;;5431538;26;20268;-68
2024/04/15 04:01:14;;;;;;;10.40;6.40;;;12.60;99.90;;;;;;5422289;26;20260;-69
2024/04/15 04:03:43;;;;;;;8.77;6.70;;;12.60;99.90;;;;;;5420718;26;20317;-70
2024/04/15 04:06:09;;;;;;;8.83;6.93;;;12.60;99.90;;;;;;5421179;26;20229;-69
2024/04/15 04:08:37;;;;;;;10.67;7.27;;;12.60;99.90;;;;;;5420826;26;20283;-69
2024/04/15 04:11:05;;;;;;;9.37;5.43;;;12.50;99.90;;;;;;5419654;26;20279;-69
2024/04/15 04:13:35;;;;;;;7.17;6.10;;;12.50;99.90;;;;;;5419906;26;20273;-69
2024/04/15 04:16:01;;;;;;;6.37;5.77;;;12.60;99.90;;;;;;5421779;26;20186;-70
2024/04/15 04:18:32;;;;;;;8.93;6.03;;;12.50;99.90;;;;;;5420858;26;20581;-70
2024/04/15 04:20:58;;;;;;;6.67;5.87;;;12.50;99.90;;;;;;5421257;26;20256;-70
2024/04/15 04:23:27;;;;;;;7.17;6.43;;;12.40;99.90;;;;;;5420822;26;20221;-69
2024/04/15 04:25:53;;;;;;;11.00;7.20;;;12.40;99.90;;;;;;5420551;26;20222;-70
2024/04/15 04:28:22;;;;;;;10.20;7.47;;;12.50;99.90;;;;;;5420934;26;20605;-70
2024/04/15 04:30:48;;;;;;;10.40;6.63;;;12.50;99.90;;;;;;5419382;26;20702;-70
2024/04/15 04:33:16;;;;;;;7.07;6.00;;;12.40;99.90;;;;;;5419785;26;20217;-70
2024/04/15 04:35:45;;;;;;;10.67;6.53;;;12.40;99.90;;;;;;5423860;26;20226;-69
2024/04/15 04:38:14;;;;;;;10.03;6.10;;;12.30;99.90;;;;;;5418616;26;20237;-69
2024/04/15 04:40:40;;;;;;;12.80;6.20;;;12.30;99.90;;;;;;5419783;26;20213;-69
2024/04/15 04:43:09;;;;;;;9.23;6.27;;;12.30;99.90;;;;;;5419339;26;20268;-69
2024/04/15 04:45:35;;;;;;;7.23;6.27;;;12.30;99.90;;;;;;5420644;26;20221;-70
2024/04/15 04:48:04;;;;;;;7.90;7.10;;;12.30;99.90;;;;;;5421401;26;20591;-69
2024/04/15 04:50:30;;;;;;;11.47;7.10;;;12.30;99.90;;;;;;5420181;26;20273;-70
2024/04/15 04:53:01;;;;;;;8.30;7.30;;;12.20;99.90;;;;;;5418883;26;20225;-69
2024/04/15 04:55:27;;;;;;;9.30;7.87;;;12.20;99.90;;;;;;5419232;26;20530;-69
2024/04/15 04:57:56;;;;;;;10.00;7.80;;;12.20;99.90;;;;;;5419143;26;20260;-70
2024/04/15 05:00:22;;;;;;;11.37;8.63;;;12.10;99.90;;;;;;5419051;26;20722;-69
2024/04/15 05:02:51;;;;;;;11.00;7.60;;;12.10;99.90;;;;;;5418784;26;20710;-69
2024/04/15 05:05:17;;;;;;;9.63;8.10;;;12.10;99.90;;;;;;5418705;26;20731;-69
2024/04/15 05:07:46;;;;;;;9.13;8.23;;;12.10;99.90;;;;;;5419865;26;20230;-68
2024/04/15 05:10:15;;;;;;;9.00;7.60;;;12.10;99.90;;;;;;5419947;26;20643;-69
2024/04/15 05:12:43;;;;;;;8.93;7.30;;;12.10;99.90;;;;;;5420743;26;20213;-70
2024/04/15 05:15:09;;;;;;;7.93;6.37;;;12.00;99.90;;;;;;5421389;26;20222;-69
2024/04/15 05:17:39;;;;;;;9.23;6.80;;;12.10;99.90;;;;;;5420082;26;20217;-70
2024/04/15 05:20:07;;;;;;;7.27;6.33;;;12.00;99.90;;;;;;5418287;26;20290;-68
2024/04/15 05:22:36;;;;;;;6.93;6.30;;;12.00;99.90;;;;;;5420005;26;20237;-69
2024/04/15 05:25:03;;;;;;;7.77;7.00;;;12.00;99.90;;;;;;5420243;26;20229;-69
2024/04/15 05:27:35;;;;;;;7.73;6.67;;;12.00;99.90;;;;;;5418775;26;20221;-69
2024/04/15 05:30:01;;;;;;;8.33;7.07;;;12.00;99.90;;;;;;5418479;26;20229;-69
2024/04/15 05:32:30;;;;;;;7.80;6.57;;;12.00;99.90;;;;;;5418168;26;20241;-69
2024/04/15 05:34:56;;;;;;;7.73;6.80;;;12.00;99.90;;;;;;5418344;26;20260;-69
2024/04/15 05:37:24;;;;;;;9.00;7.07;;;12.10;99.90;;;;;;5418524;26;20217;-69
2024/04/15 05:39:50;;;;;;;8.20;7.10;;;12.10;99.90;;;;;;5418270;26;20241;-68
2024/04/15 05:42:18;;;;;;;7.10;6.17;;;12.00;99.90;;;;;;5418508;26;20267;-68
2024/04/15 05:44:47;;;;;;;9.07;7.17;;;12.00;99.90;;;;;;5418509;26;20719;-69
2024/04/15 05:47:15;;;;;;;9.50;6.50;;;12.00;99.90;;;;;;5418147;26;20690;-69
2024/04/15 05:49:41;;;;;;;9.83;6.87;;;11.90;99.90;;;;;;5418228;26;20233;-69
2024/04/15 05:52:10;;;;;;;7.10;6.40;;;11.90;99.90;;;;;;5418004;26;20260;-68
2024/04/15 05:54:35;;;;;;;8.47;5.80;;;11.90;99.90;;;;;;5418178;26;20260;-68
2024/04/15 05:57:04;;;;;;;6.33;5.23;;;11.80;99.90;;;;;;5417927;26;20229;-68
2024/04/15 05:59:30;;;;;;;7.83;4.63;;;11.90;99.90;;;;;;5417839;26;20249;-69
2024/04/15 06:02:01;;;;;;;5.87;5.23;;;11.90;99.90;;;;;;5416379;26;20560;-69
2024/04/15 06:04:28;;;;;;;5.97;5.40;;;11.90;99.90;;;;;;5416190;26;20182;-69
2024/04/15 06:06:59;;;;;;;6.37;5.77;;;11.90;99.90;;;;;;5418254;26;20226;-68
2024/04/15 06:09:25;;;;;;;7.50;5.13;;;11.90;99.90;;;;;;5417960;26;20268;-69
2024/04/15 06:11:53;;;;;;;7.43;5.90;;;11.90;99.90;;;;;;5417859;26;20229;-69
2024/04/15 06:14:22;;;;;;;6.63;5.60;;;11.90;99.90;;;;;;5417962;26;20221;-69
2024/04/15 06:16:51;;;;;;;8.07;5.97;;;12.00;99.90;;;;;;5418756;26;20318;-69
2024/04/15 06:19:20;;;;;;;7.70;6.90;;;12.00;99.90;;;;;;5417780;26;20602;-69
2024/04/15 06:21:48;;;;;;;7.53;6.40;;;12.00;99.90;;;;;;5417464;26;20221;-69
2024/04/15 06:24:14;;;;;;;7.43;5.90;;;12.00;99.90;;;;;;5416745;26;20260;-69
2024/04/15 06:26:43;;;;;;;8.67;6.10;;;12.00;99.90;;;;;;5417593;26;20241;-69
2024/04/15 06:29:09;;;;;;;7.43;5.40;;;12.10;99.90;;;;;;5417651;26;20241;-69
2024/04/15 06:31:38;;;;;;;6.17;5.57;;;12.20;99.90;;;;;;5418079;26;20221;-69
2024/04/15 06:34:04;;;;;;;7.67;4.60;;;12.20;99.90;;;;;;5417789;26;20854;-68
2024/04/15 06:36:35;;;;;;;5.20;4.63;;;12.20;99.90;;;;;;5417431;26;20234;-68
2024/04/15 06:39:01;;;;;;;6.50;4.43;;;12.20;99.90;;;;;;5417427;26;20225;-68
2024/04/15 06:41:30;;;;;;;5.63;4.20;;;12.10;99.90;;;;;;5417069;26;20225;-68
2024/04/15 06:43:56;;;;;;;5.73;4.00;;;12.10;99.90;;;;;;5417465;26;20268;-68
2024/04/15 06:46:25;;;;;;;6.40;4.10;;;12.10;99.90;;;;;;5417494;26;20217;-68
2024/04/15 06:48:51;;;;;;;8.07;4.00;;;12.00;99.90;;;;;;5417224;26;20298;-68
2024/04/15 06:51:20;;;;;;;5.60;3.77;;;12.00;99.90;;;;;;5416920;26;20229;-69
2024/04/15 06:53:48;;;;;;;4.57;3.67;;;12.00;99.90;;;;;;5417111;26;20217;-67
2024/04/15 06:56:17;;;;;;;5.07;3.73;;;12.00;99.90;;;;;;5416905;26;20225;-67
2024/04/15 06:58:43;;;;;;;4.80;3.83;;;12.00;99.90;;;;;;5417024;26;20237;-67
2024/04/15 07:01:12;;;;;;;4.60;3.97;;;12.00;99.90;;;;;;5417068;26;20218;-67
2024/04/15 07:03:38;;;;;;;5.30;3.30;;;11.90;99.90;;;;;;5416730;26;20229;-68
2024/04/15 07:06:07;;;;;;;5.97;3.20;;;12.00;99.90;;;;;;5416968;26;20218;-68
2024/04/15 07:08:32;;;;;;;4.97;2.77;;;12.00;99.90;;;;;;5416817;26;20230;-68
2024/04/15 07:11:04;;;;;;;4.37;2.97;;;12.10;99.90;;;;;;5417474;26;20256;-69
2024/04/15 07:13:30;;;;;;;5.07;2.90;;;12.20;99.90;;;;;;5418190;26;20226;-69
2024/04/15 07:15:59;;;;;;;7.23;3.50;;;12.30;99.90;;;;;;5418655;26;20251;-69
2024/04/15 07:18:25;;;;;;;4.67;3.30;;;12.30;99.90;;;;;;5416480;26;20264;-68
2024/04/15 07:20:53;;;;;;;4.37;3.20;;;12.30;99.90;;;;;;5416464;26;20221;-68
2024/04/15 07:23:19;;;;;;;3.07;2.70;;;12.30;99.90;;;;;;5416611;26;20256;-68
2024/04/15 07:25:48;;;;;;;5.03;3.70;;;12.40;99.90;;;;;;5416394;26;20230;-68
2024/04/15 07:28:16;;;;;;;8.00;3.70;;;12.40;99.90;;;;;;5416109;26;20757;-68
2024/04/15 07:30:45;;;;;;;5.27;3.27;;;12.50;99.90;;;;;;5416501;26;20222;-68
2024/04/15 07:33:10;;;;;;;3.53;3.23;;;12.30;99.90;;;;;;5416350;26;20256;-68
2024/04/15 07:35:39;;;;;;;4.50;3.07;;;12.30;99.90;;;;;;5418200;26;20221;-68
2024/04/15 07:38:05;;;;;;;4.10;3.70;;;12.30;99.90;;;;;;5419920;26;20257;-69
2024/04/15 07:40:33;;;;;;;4.13;3.23;;;12.40;99.90;;;;;;5419953;26;20241;-68
2024/04/15 07:42:59;;;;;;;4.00;2.90;;;12.40;99.90;;;;;;5420410;26;20279;-68
2024/04/15 07:45:30;;;;;;;5.07;3.50;;;12.40;99.90;;;;;;5419819;26;20221;-68
2024/04/15 07:47:57;;;;;;;4.20;3.30;;;12.30;99.90;;;;;;5420080;26;20214;-68
2024/04/15 07:50:25;;;;;;;5.53;3.80;;;12.30;99.90;;;;;;5419934;26;20252;-68
2024/04/15 07:52:51;;;;;;;5.30;3.90;;;12.20;99.90;;;;;;5420174;26;20562;-68
2024/04/15 07:55:20;;;;;;;5.57;3.37;;;12.30;99.90;;;;;;5419896;26;20281;-68
2024/04/15 07:57:45;;;;;;;5.07;3.47;;;12.20;99.90;;;;;;5419723;26;20217;-68
2024/04/15 08:00:14;;;;;;;6.80;4.50;;;12.20;99.90;;;;;;5419589;26;20248;-68
2024/04/15 08:02:44;;;;;;;7.60;3.80;;;12.30;99.90;;;;;;5419983;26;20687;-69
2024/04/15 08:05:13;;;;;;;5.07;3.97;;;12.30;99.90;;;;;;5420045;26;20229;-68
2024/04/15 08:07:39;;;;;;;4.50;3.70;;;12.30;99.90;;;;;;5419972;26;20229;-68
2024/04/15 08:10:08;;;;;;;6.20;4.10;;;12.30;99.90;;;;;;5420034;26;20300;-68
2024/04/15 08:12:34;;;;;;;6.40;4.23;;;12.30;99.90;;;;;;5419509;26;20393;-68
2024/04/15 08:15:03;;;;;;;8.73;4.50;;;12.40;99.90;;;;;;5419693;26;20264;-68
2024/04/15 08:17:29;;;;;;;9.40;4.57;;;12.40;99.90;;;;;;5419373;26;20225;-68
2024/04/15 08:20:00;;;;;;;6.27;4.03;;;12.40;99.90;;;;;;5419314;26;20737;-68
2024/04/15 08:22:26;;;;;;;4.53;4.13;;;12.50;99.90;;;;;;5419435;26;20261;-68
2024/04/15 08:24:54;;;;;;;5.80;4.57;;;12.50;99.90;;;;;;5419090;26;20233;-68
2024/04/15 08:27:20;;;;;;;5.30;4.60;;;12.40;99.90;;;;;;5419129;26;20258;-69
2024/04/15 08:29:49;;;;;;;8.33;5.07;;;12.40;99.90;;;;;;5419374;26;20237;-69
2024/04/15 08:32:15;;;;;;;5.23;4.53;;;12.40;99.90;;;;;;5419140;26;20276;-69
2024/04/15 08:34:43;;;;;;;6.13;5.53;;;12.40;99.90;;;;;;5418979;26;20233;-69
2024/04/15 08:37:12;;;;;;;5.70;5.17;;;12.50;99.90;;;;;;5419005;26;20217;-69
2024/04/15 08:39:42;;;;;;;7.90;5.20;;;12.50;99.90;;;;;;5419119;26;20225;-69
2024/04/15 08:42:19;;;;;;;7.27;5.20;;;12.60;99.90;;;;;;5419097;26;20218;-69
2024/04/15 08:44:48;;;;;;;5.80;5.23;;;12.80;99.90;;;;;;5418588;26;20181;-69
2024/04/15 08:47:23;;;;;;;7.83;5.13;;;12.80;99.90;;;;;;5418228;26;20253;-69
2024/04/15 08:49:52;;;;;;;5.90;5.23;;;12.90;99.90;;;;;;5418697;26;20725;-69
2024/04/15 08:52:21;;;;;;;7.23;4.73;;;13.00;99.90;;;;;;5418917;26;20222;-69
2024/04/15 08:54:49;;;;;;;5.40;4.20;;;13.00;99.90;;;;;;5418874;26;20690;-69
2024/04/15 08:57:17;;;;;;;9.00;4.97;;;13.20;99.90;;;;;;5418756;26;20221;-69
2024/04/15 08:59:47;;;;;;;5.60;4.73;;;13.40;99.90;;;;;;5418562;26;20306;-68
2024/04/15 09:02:15;;;;;;;6.40;4.57;;;13.50;99.90;;;;;;5418556;26;20226;-68
2024/04/15 09:04:44;;;;;;;7.63;5.07;;;13.60;99.90;;;;;;5418856;26;20237;-68
2024/04/15 09:07:10;;;;;;;6.03;4.67;;;13.60;99.90;;;;;;5418653;26;20225;-68
2024/04/15 09:09:41;;;;;;;7.33;5.00;;;13.60;99.90;;;;;;5418871;26;20259;-69
2024/04/15 09:12:07;;;;;;;6.37;5.07;;;13.70;99.90;;;;;;5418810;26;20217;-69
2024/04/15 09:14:36;;;;;;;5.93;5.33;;;13.80;99.90;;;;;;5418926;26;20549;-69
2024/04/15 09:17:02;;;;;;;5.73;4.83;;;14.00;99.90;;;;;;5418947;26;20338;-69
2024/04/15 09:19:30;;;;;;;6.77;5.33;;;14.10;99.90;;;;;;5418426;26;20779;-69
2024/04/15 09:21:59;;;;;;;7.80;5.37;;;14.10;99.90;;;;;;5418752;26;20226;-69
2024/04/15 09:24:28;;;;;;;5.53;4.90;;;14.40;99.90;;;;;;5418667;26;20222;-69
2024/04/15 09:26:56;;;;;;;6.07;5.30;;;14.30;99.90;;;;;;5418690;26;20256;-69
2024/04/15 09:29:25;;;;;;;5.00;4.40;;;14.70;99.90;;;;;;5418537;26;20238;-69
2024/04/15 09:31:51;;;;;;;5.80;5.10;;;14.90;99.90;;;;;;5420613;26;20252;-69
2024/04/15 09:34:19;;;;;;;6.17;5.30;;;14.50;99.90;;;;;;5419897;26;20237;-69
2024/04/15 09:36:47;;;;;;;6.20;5.43;;;14.40;99.90;;;;;;5420195;26;20264;-69
2024/04/15 09:39:16;;;;;;;7.03;5.97;;;14.40;99.90;;;;;;5421991;26;20624;-70
2024/04/15 09:41:42;;;;;;;7.13;5.50;;;14.30;99.90;;;;;;5421838;26;20699;-69
2024/04/15 09:44:16;;;;;;;6.90;5.20;;;14.20;99.90;;;;;;5434185;26;20276;-69
2024/04/15 09:46:43;;;;;;;6.03;5.10;;;14.10;99.90;;;;;;5429062;26;20225;-69
2024/04/15 09:49:15;;;;;;;6.80;5.83;;;14.10;99.90;;;;;;5420454;26;20245;-68
2024/04/15 09:51:42;;;;;;;9.37;6.20;;;14.00;99.90;;;;;;5420605;26;20285;-68
2024/04/15 09:54:12;;;;;;;9.33;6.13;;;14.10;99.90;;;;;;5420449;26;20256;-69
2024/04/15 09:56:42;;;;;;;8.57;5.70;;;14.00;99.90;;;;;;5419569;26;20269;-69
2024/04/15 09:59:18;;;;;;;7.47;5.60;;;13.90;99.90;;;;;;5417078;26;20233;-69
2024/04/15 10:01:47;;;;;;;6.70;6.00;;;13.60;99.90;;;;;;5418248;26;20209;-69
2024/04/15 10:04:22;;;;;;;11.67;6.23;;;13.50;99.90;;;;;;5418984;26;20229;-69
2024/04/15 10:06:51;;;;;;;6.70;5.80;;;13.60;99.90;;;;;;5419834;26;20631;-69
2024/04/15 10:09:20;;;;;;;8.90;5.63;;;13.60;99.90;;;;;;5419315;26;20272;-68
2024/04/15 10:11:49;;;;;;;7.13;6.03;;;13.60;99.90;;;;;;5419621;26;20322;-68
2024/04/15 10:14:21;;;;;;;8.30;6.03;;;13.80;99.90;;;;;;5419891;26;20221;-68
2024/04/15 10:16:48;;;;;;;6.20;5.60;;;14.10;99.90;;;;;;5419637;26;20554;-69
2024/04/15 10:19:26;;;;;;;6.80;5.57;;;14.20;99.90;;;;;;5420737;26;20285;-68
2024/04/15 10:21:52;;;;;;;6.27;5.23;;;14.20;99.90;;;;;;5419723;26;20264;-69
2024/04/15 10:24:21;;;;;;;8.13;5.40;;;14.30;99.90;;;;;;5418161;26;20221;-69
2024/04/15 10:26:47;;;;;;;6.33;4.47;;;14.40;99.90;;;;;;5418098;26;20221;-69
2024/04/15 10:29:23;;;;;;;7.87;4.80;;;14.40;99.90;;;;;;5418543;26;20245;-68
2024/04/15 10:31:50;;;;;;;6.90;4.90;;;14.40;99.90;;;;;;5419861;26;20280;-69
2024/04/15 10:34:19;;;;;;;7.67;5.60;;;14.60;99.90;;;;;;5419499;26;20225;-69
2024/04/15 10:36:48;;;;;;;6.33;4.60;;;14.60;99.90;;;;;;5420018;26;20221;-69
2024/04/15 10:39:18;;;;;;;6.17;4.40;;;14.60;99.90;;;;;;5419562;26;20249;-68
2024/04/15 10:41:45;;;;;;;7.70;4.22;;;14.80;99.90;;;;;;5418775;26;20264;-69
2024/04/15 10:44:13;;;;;;;6.50;4.43;;;14.80;99.90;;;;;;5419131;26;20273;-69
2024/04/15 10:46:43;;;;;;;6.88;4.45;;;14.70;99.90;;;;;;5418996;26;20236;-69
2024/04/15 10:49:12;;;;;;;5.60;4.20;;;14.70;99.90;;;;;;5417523;26;20225;-68
2024/04/15 10:51:38;;;;;;;4.97;4.28;;;14.70;99.90;;;;;;5418175;26;20221;-69
2024/04/15 10:54:07;;;;;;;4.35;3.90;;;14.60;99.90;;;;;;5418316;26;20221;-69
2024/04/15 10:56:33;;;;;;;4.97;3.60;;;14.60;99.90;;;;;;5418998;26;20283;-69
2024/04/15 10:59:02;;;;;;;5.17;4.17;;;14.70;99.90;;;;;;5418772;26;20576;-68
2024/04/15 11:01:28;;;;;;;5.78;4.35;;;15.00;99.90;;;;;;5418473;26;20267;-69
2024/04/15 11:04:00;;;;;;;6.57;4.28;;;15.20;99.90;;;;;;5417964;26;20267;-69
2024/04/15 11:06:28;;;;;;;5.25;4.53;;;15.10;99.90;;;;;;5417901;26;20229;-69
2024/04/15 11:09:00;;;;;;;5.85;4.15;;;14.90;99.90;;;;;;5418974;26;20259;-68
2024/04/15 11:11:26;;;;;;;4.95;4.30;;;15.00;99.90;;;;;;5421730;26;20253;-69
2024/04/15 11:13:55;;;;;;;5.15;4.25;;;15.00;99.90;;;;;;5421092;26;20221;-69
2024/04/15 11:16:21;;;;;;;5.22;3.13;;;14.80;99.90;;;;;;5420865;26;20264;-69
2024/04/15 11:18:49;;;;;;;4.27;3.73;;;14.90;99.90;;;;;;5422031;26;20225;-68
2024/04/15 11:21:18;;;;;;;4.63;3.58;;;15.00;99.90;;;;;;5422233;26;20221;-68
2024/04/15 11:23:47;;;;;;;5.80;3.88;;;15.30;99.90;;;;;;5421718;26;20735;-68
2024/04/15 11:26:15;;;;;;;7.30;3.08;;;15.40;99.90;;;;;;5420394;26;20225;-69
2024/04/15 11:28:45;;;;;;;3.80;3.10;;;15.60;99.90;;;;;;5420261;26;20233;-68
2024/04/15 11:31:11;;;;;;;4.18;2.92;;;15.80;99.90;;;;;;5420802;26;20204;-69
2024/04/15 11:33:40;;;;;;;2.78;2.53;;;15.90;99.90;;;;;;5420508;26;20252;-69
2024/04/15 11:36:13;;;;;;;4.47;2.65;;;16.00;99.90;;;;;;5420330;26;20217;-69
2024/04/15 11:38:45;;;;;;;2.67;2.20;;;16.00;99.90;;;;;;5420342;26;20643;-68
2024/04/15 11:41:11;;;;;;;3.75;2.35;;;15.90;99.90;;;;;;5421058;26;20749;-69
2024/04/15 11:43:40;;;;;;;3.10;2.30;;;15.80;99.90;;;;;;5420738;26;20218;-69
2024/04/15 11:46:15;;;;;;;5.15;2.17;;;16.00;99.90;;;;;;5419936;26;20229;-69
2024/04/15 11:48:44;;;;;;;4.72;2.50;;;16.20;99.90;;;;;;5419526;26;20229;-68
2024/04/15 11:51:10;;;;;;;2.33;2.10;;;15.60;99.90;;;;;;5419655;26;20576;-69
2024/04/15 11:53:39;;;;;;;2.72;2.22;;;15.90;99.90;;;;;;5419447;26;20363;-69
2024/04/15 11:56:08;;;;;;;2.47;2.28;;;16.00;99.90;;;;;;5419507;26;20702;-69
2024/04/15 11:58:37;;;;;;;5.57;2.63;;;15.90;99.90;;;;;;5419738;26;20605;-68
2024/04/15 12:01:03;;;;;;;3.03;2.40;;;15.80;99.90;;;;;;5419680;26;20217;-69
2024/04/15 12:03:33;;;;;;;4.43;2.42;;;15.40;99.90;;;;;;5419859;26;20225;-69
2024/04/15 12:06:02;;;;;;;7.22;2.95;;;15.50;99.90;;;;;;5419773;26;20214;-69
2024/04/15 12:08:31;;;;;;;3.25;2.75;;;15.50;99.90;;;;;;5419938;26;20322;-68
2024/04/15 12:10:56;;;;;;;3.88;2.53;;;15.40;99.90;;;;;;5419570;26;20325;-69
2024/04/15 12:13:28;;;;;;;2.95;2.58;;;15.00;99.90;;;;;;5419314;26;20237;-69
2024/04/15 12:15:53;;;;;;;5.73;2.90;;;14.90;99.90;;;;;;5419912;26;20513;-69
2024/04/15 12:18:22;;;;;;;5.93;2.58;;;14.90;99.90;;;;;;5419396;26;20264;-69
2024/04/15 12:20:50;;;;;;;2.63;2.43;;;14.80;99.90;;;;;;5418196;26;20221;-69
2024/04/15 12:23:16;;;;;;;4.43;2.83;;;14.80;99.90;;;;;;5419439;26;20719;-69
2024/04/15 12:25:45;;;;;;;4.67;2.83;;;14.90;99.90;;;;;;5420102;26;20218;-70
2024/04/15 12:28:11;;;;;;;5.43;3.10;;;15.10;99.90;;;;;;5420103;26;20275;-69
2024/04/15 12:30:42;;;;;;;3.70;2.50;;;15.20;99.90;;;;;;5419980;26;20271;-70
2024/04/15 12:33:08;;;;;;;3.35;2.40;;;15.20;99.90;;;;;;5421098;26;20182;-69
2024/04/15 12:35:37;;;;;;;3.53;2.35;;;15.50;99.90;;;;;;5421520;26;20225;-69
2024/04/15 12:38:03;;;;;;;6.30;2.17;;;15.50;99.90;;;;;;5420410;26;20218;-69
2024/04/15 12:40:31;;;;;;;2.22;2.08;;;15.50;99.90;;;;;;5420350;26;20237;-68
2024/04/15 12:42:57;;;;;;;6.78;2.33;;;15.50;99.90;;;;;;5420491;26;20225;-68
2024/04/15 12:45:26;;;;;;;4.88;2.30;;;15.70;99.90;;;;;;5419150;26;20320;-68
2024/04/15 12:47:55;;;;;;;3.50;2.42;;;15.80;99.90;;;;;;5418933;26;20562;-68
2024/04/15 12:50:23;;;;;;;5.03;2.17;;;15.60;99.90;;;;;;5418871;26;20723;-68